Time;durP1;ratioP1;P1;durP2;ratioP2;P2;SDS_P1;SDS_P2;PMS_P1;PMS_P2;Temp;Humidity;BMP_temperature;BMP_pressure;BME280_temperature;BME280_humidity;BME280_pressure;Samples;Min_cycle;Max_cycle;Signal;HPM_P1;HPM_P2
2024/01/20 00:01:55;;;;;;;6.13;4.90;;;;;;;-13.70;93.28;100626.41;5037778;28;20083;-68
2024/01/20 00:04:20;;;;;;;5.53;4.90;;;;;;;-13.65;93.19;100652.81;5045953;28;20075;-68
2024/01/20 00:06:46;;;;;;;5.23;4.70;;;;;;;-13.77;93.70;100635.00;5044379;28;20132;-69
2024/01/20 00:09:11;;;;;;;6.67;5.43;;;;;;;-13.62;94.16;100665.59;5048295;28;20056;-64
2024/01/20 00:11:40;;;;;;;6.40;5.80;;;;;;;-13.81;94.33;100623.94;5044605;28;20135;-66
2024/01/20 00:14:05;;;;;;;8.48;4.93;;;;;;;-13.52;93.86;100666.38;5040093;28;20448;-66
2024/01/20 00:16:35;;;;;;;7.67;6.30;;;;;;;-13.55;93.63;100672.38;5043007;28;20095;-68
2024/01/20 00:19:00;;;;;;;7.88;5.43;;;;;;;-13.73;94.26;100646.91;5041526;28;20053;-67
2024/01/20 00:21:26;;;;;;;10.77;5.10;;;;;;;-13.72;93.18;100652.88;5035642;28;20427;-68
2024/01/20 00:23:51;;;;;;;4.47;3.97;;;;;;;-13.68;94.22;100665.66;5046334;28;20041;-66
2024/01/20 00:26:18;;;;;;;6.03;4.63;;;;;;;-13.71;93.83;100665.69;5038483;28;20033;-67
2024/01/20 00:28:44;;;;;;;5.30;4.38;;;;;;;-13.67;93.71;100680.16;5032894;28;20533;-65
2024/01/20 00:31:09;;;;;;;8.83;5.63;;;;;;;-13.70;92.90;100682.75;5043689;28;20037;-68
2024/01/20 00:33:35;;;;;;;5.90;4.83;;;;;;;-13.81;93.65;100689.66;5043022;28;20073;-67
2024/01/20 00:36:00;;;;;;;9.73;7.47;;;;;;;-14.12;93.61;100646.41;5046307;28;20041;-67
2024/01/20 00:38:27;;;;;;;5.87;5.27;;;;;;;-13.85;93.79;100698.25;5039378;28;20036;-64
2024/01/20 00:40:53;;;;;;;7.07;5.78;;;;;;;-13.78;94.49;100699.88;5041675;28;20033;-66
2024/01/20 00:43:18;;;;;;;10.60;7.40;;;;;;;-14.20;94.64;100630.22;5044838;28;20110;-67
2024/01/20 00:45:45;;;;;;;4.90;4.50;;;;;;;-13.77;94.81;100693.91;5042610;28;20404;-69
2024/01/20 00:48:11;;;;;;;9.20;5.68;;;;;;;-13.68;94.57;100716.84;5041877;28;20594;-66
2024/01/20 00:50:37;;;;;;;10.17;6.03;;;;;;;-13.91;94.11;100693.13;5045678;28;20044;-68
2024/01/20 00:53:02;;;;;;;10.27;6.97;;;;;;;-13.84;93.92;100730.66;5062631;28;20040;-68
2024/01/20 00:55:28;;;;;;;10.53;5.47;;;;;;;-14.07;94.13;100707.78;5065436;28;20045;-68
2024/01/20 00:57:53;;;;;;;7.90;5.20;;;;;;;-14.12;94.76;100717.19;5048378;28;20053;-67
2024/01/20 01:00:19;;;;;;;7.20;5.40;;;;;;;-14.09;95.23;100741.06;5049484;28;20065;-66
2024/01/20 01:02:45;;;;;;;7.07;5.13;;;;;;;-14.16;95.17;100744.50;5043738;28;20041;-66
2024/01/20 01:05:10;;;;;;;6.53;4.77;;;;;;;-14.14;96.34;100741.94;5058079;28;20104;-65
2024/01/20 01:07:36;;;;;;;7.63;5.67;;;;;;;-14.29;96.15;100724.09;5049413;28;20393;-63
2024/01/20 01:10:08;;;;;;;7.80;5.47;;;;;;;-14.16;97.47;100751.34;5069105;28;20041;-64
2024/01/20 01:12:34;;;;;;;7.38;5.72;;;;;;;-14.06;97.59;100765.78;5048461;28;20043;-66
2024/01/20 01:15:01;;;;;;;9.98;6.72;;;;;;;-13.95;98.09;100763.13;5053295;28;20535;-65
2024/01/20 01:17:28;;;;;;;7.53;5.18;;;;;;;-13.92;98.28;100768.22;5054792;28;20078;-65
2024/01/20 01:19:54;;;;;;;10.23;5.35;;;;;;;-13.83;98.44;100781.84;5051207;28;20046;-65
2024/01/20 01:22:19;;;;;;;7.67;5.83;;;;;;;-14.25;97.63;100708.72;5037352;28;20039;-66
2024/01/20 01:24:45;;;;;;;7.40;5.00;;;;;;;-13.85;97.92;100795.50;5048170;28;20052;-67
2024/01/20 01:27:10;;;;;;;9.93;6.50;;;;;;;-13.90;97.78;100789.53;5049910;28;20037;-67
2024/01/20 01:29:36;;;;;;;6.90;5.40;;;;;;;-14.01;97.77;100781.94;5044814;28;20037;-68
2024/01/20 01:32:02;;;;;;;7.63;6.13;;;;;;;-13.95;98.22;100798.97;5047041;28;20075;-67
2024/01/20 01:34:27;;;;;;;13.27;5.97;;;;;;;-14.00;97.89;100808.38;5045955;28;20127;-66
2024/01/20 01:36:53;;;;;;;6.73;5.37;;;;;;;-14.02;98.62;100812.66;5051196;28;20299;-70
2024/01/20 01:39:20;;;;;;;10.03;6.80;;;;;;;-14.21;99.12;100782.03;5043888;28;20128;-65
2024/01/20 01:41:46;;;;;;;7.60;6.25;;;;;;;-13.93;99.53;100821.13;5035623;28;20048;-69
2024/01/20 01:44:11;;;;;;;10.20;6.90;;;;;;;-13.81;99.54;100822.78;5047864;28;20045;-67
2024/01/20 01:46:38;;;;;;;6.37;5.30;;;;;;;-13.98;99.54;100793.88;5040527;28;20146;-64
2024/01/20 01:49:05;;;;;;;6.75;5.70;;;;;;;-13.98;99.18;100804.09;5033387;28;20287;-65
2024/01/20 01:51:31;;;;;;;12.25;5.72;;;;;;;-13.94;99.37;100810.91;5039480;28;20043;-68
2024/01/20 01:54:00;;;;;;;9.15;5.57;;;;;;;-13.89;99.64;100809.16;5038809;28;20037;-67
2024/01/20 01:56:26;;;;;;;7.88;5.43;;;;;;;-13.97;98.96;100787.88;5036530;28;20527;-66
2024/01/20 01:58:52;;;;;;;5.93;5.18;;;;;;;-13.79;98.35;100841.56;5044354;28;20037;-67
2024/01/20 02:01:17;;;;;;;6.80;6.13;;;;;;;-13.81;98.36;100843.28;5040817;28;20427;-67
2024/01/20 02:03:43;;;;;;;8.20;5.43;;;;;;;-13.91;97.57;100841.59;5039477;28;20041;-62
2024/01/20 02:06:09;;;;;;;10.40;5.97;;;;;;;-14.12;98.55;100807.59;5041695;28;20048;-68
2024/01/20 02:08:35;;;;;;;6.00;5.40;;;;;;;-14.04;98.84;100817.78;5033526;28;20088;-67
2024/01/20 02:11:02;;;;;;;9.00;5.07;;;;;;;-14.13;98.05;100821.25;5037436;28;20041;-70
2024/01/20 02:13:28;;;;;;;11.10;5.72;;;;;;;-14.09;98.40;100845.97;5038031;28;20037;-65
2024/01/20 02:15:54;;;;;;;6.88;6.28;;;;;;;-14.17;99.30;100839.16;5033084;28;20500;-68
2024/01/20 02:18:23;;;;;;;8.77;6.00;;;;;;;-13.97;99.57;100865.53;5046137;28;20135;-70
2024/01/20 02:20:49;;;;;;;16.40;6.72;;;;;;;-14.02;98.95;100866.41;5044122;28;20095;-68
2024/01/20 02:23:14;;;;;;;7.10;5.38;;;;;;;-14.17;99.70;100834.88;5044164;28;20033;-67
2024/01/20 02:25:40;;;;;;;7.07;5.20;;;;;;;-13.98;99.63;100860.41;5048923;28;20040;-68
2024/01/20 02:28:06;;;;;;;10.90;5.80;;;;;;;-13.90;99.54;100874.88;5043361;28;20025;-65
2024/01/20 02:30:31;;;;;;;9.57;5.47;;;;;;;-13.92;98.83;100870.63;5041858;28;20037;-69
2024/01/20 02:32:57;;;;;;;9.43;5.90;;;;;;;-14.09;98.93;100848.53;5042933;28;20374;-65
2024/01/20 02:35:22;;;;;;;5.00;4.50;;;;;;;-14.23;98.98;100840.03;5042709;28;20075;-66
2024/01/20 02:37:48;;;;;;;6.50;5.83;;;;;;;-14.00;99.53;100883.47;5043742;28;20094;-65
2024/01/20 02:40:13;;;;;;;8.03;5.17;;;;;;;-14.09;99.03;100883.50;5043015;28;20091;-66
2024/01/20 02:42:39;;;;;;;5.83;5.23;;;;;;;-14.11;100.00;100880.94;5039313;28;20078;-66
2024/01/20 02:45:05;;;;;;;7.10;5.90;;;;;;;-14.03;100.00;100880.06;5043191;28;20139;-68
2024/01/20 02:47:31;;;;;;;8.90;5.53;;;;;;;-13.98;100.00;100891.13;5051205;28;20404;-68
2024/01/20 02:49:56;;;;;;;7.33;5.60;;;;;;;-14.04;99.93;100886.03;5040201;28;20033;-66
2024/01/20 02:52:22;;;;;;;9.23;6.03;;;;;;;-13.92;100.00;100907.31;5043938;28;20045;-66
2024/01/20 02:54:47;;;;;;;8.70;5.20;;;;;;;-14.00;99.57;100898.81;5039968;28;20083;-66
2024/01/20 02:57:13;;;;;;;7.60;5.73;;;;;;;-14.07;100.00;100909.09;5042419;28;20037;-66
2024/01/20 02:59:39;;;;;;;11.20;6.30;;;;;;;-14.04;100.00;100911.63;5042770;28;20053;-66
2024/01/20 03:02:05;;;;;;;15.45;7.93;;;;;;;-14.39;100.00;100869.09;5030201;28;20049;-68
2024/01/20 03:04:30;;;;;;;10.03;6.47;;;;;;;-14.36;100.00;100873.34;5036013;28;20069;-67
2024/01/20 03:06:56;;;;;;;8.80;5.90;;;;;;;-14.06;100.00;100921.03;5040666;28;20319;-69
2024/01/20 03:09:21;;;;;;;7.13;6.07;;;;;;;-14.07;100.00;100906.53;5039890;28;20040;-67
2024/01/20 03:12:11;;;;;;;9.02;6.75;;;;;;;-13.93;100.00;100927.78;5043959;28;20107;-66
2024/01/20 03:14:37;;;;;;;8.43;6.80;;;;;;;-13.91;100.00;100923.50;5039547;28;20045;-66
2024/01/20 03:17:04;;;;;;;6.95;5.28;;;;;;;-13.99;100.00;100905.63;5042496;28;20496;-67
2024/01/20 03:19:30;;;;;;;10.10;6.55;;;;;;;-13.99;100.00;100915.03;5047776;28;20546;-66
2024/01/20 03:21:55;;;;;;;6.27;5.57;;;;;;;-14.34;99.58;100867.38;5048950;28;20045;-69
2024/01/20 03:24:21;;;;;;;5.67;4.83;;;;;;;-14.00;99.46;100941.47;5044449;28;20045;-68
2024/01/20 03:26:47;;;;;;;12.03;7.13;;;;;;;-14.46;99.09;100875.09;5038823;28;20083;-68
2024/01/20 03:29:12;;;;;;;6.10;5.50;;;;;;;-14.14;99.32;100937.25;5045267;28;20512;-68
2024/01/20 03:31:38;;;;;;;10.57;6.20;;;;;;;-14.38;99.86;100893.81;5040397;28;20037;-67
2024/01/20 03:34:03;;;;;;;8.50;6.90;;;;;;;-13.97;99.90;100959.38;5045893;28;20040;-67
2024/01/20 03:36:29;;;;;;;7.60;6.03;;;;;;;-14.02;100.00;100955.97;5041182;28;20037;-66
2024/01/20 03:38:55;;;;;;;11.00;6.50;;;;;;;-13.99;100.00;100961.94;5042593;28;20559;-66
2024/01/20 03:41:20;;;;;;;10.87;6.87;;;;;;;-14.03;100.00;100950.00;5041080;28;20053;-67
2024/01/20 03:43:46;;;;;;;10.10;6.10;;;;;;;-14.10;100.00;100944.06;5043376;28;20072;-67
2024/01/20 03:46:11;;;;;;;5.80;5.13;;;;;;;-14.02;100.00;100958.53;5043479;28;20049;-66
2024/01/20 03:48:37;;;;;;;8.03;5.77;;;;;;;-14.07;100.00;100943.22;5041832;28;20037;-65
2024/01/20 03:51:03;;;;;;;9.50;6.03;;;;;;;-14.07;99.66;100957.72;5040505;28;20034;-68
2024/01/20 03:53:28;;;;;;;7.57;6.03;;;;;;;-14.35;100.00;100939.84;5046911;28;20046;-66
2024/01/20 03:55:54;;;;;;;11.40;6.13;;;;;;;-14.59;100.00;100893.88;5047431;28;20086;-66
2024/01/20 03:58:19;;;;;;;8.87;6.40;;;;;;;-14.16;100.00;100971.38;5037370;28;20037;-69
2024/01/20 04:00:45;;;;;;;8.70;5.40;;;;;;;-14.01;100.00;100983.28;5042172;28;20040;-66
2024/01/20 04:03:10;;;;;;;9.27;5.80;;;;;;;-13.99;100.00;100987.53;5050537;28;20040;-66
2024/01/20 04:05:37;;;;;;;6.87;5.60;;;;;;;-14.15;100.00;100956.03;5038000;28;20411;-66
2024/01/20 04:08:02;;;;;;;6.30;5.38;;;;;;;-13.97;100.00;100990.09;5039721;28;20072;-68
2024/01/20 04:10:28;;;;;;;8.93;6.17;;;;;;;-13.98;100.00;100986.69;5042222;28;20493;-66
2024/01/20 04:12:53;;;;;;;6.97;5.53;;;;;;;-14.04;100.00;100983.28;5045813;28;20102;-66
2024/01/20 04:15:19;;;;;;;10.50;5.77;;;;;;;-13.86;100.00;101009.72;5044803;28;20041;-69
2024/01/20 04:17:46;;;;;;;7.80;6.47;;;;;;;-13.94;100.00;100985.81;5043004;28;20057;-69
2024/01/20 04:20:11;;;;;;;12.02;6.57;;;;;;;-13.74;100.00;101019.03;5041278;28;20060;-66
2024/01/20 04:22:37;;;;;;;9.53;6.57;;;;;;;-13.93;100.00;100997.75;5032564;28;20457;-67
2024/01/20 04:25:03;;;;;;;9.50;6.43;;;;;;;-13.78;100.00;101030.16;5044449;28;20479;-67
2024/01/20 04:27:29;;;;;;;9.20;5.97;;;;;;;-13.88;100.00;101010.53;5044014;28;20053;-66
2024/01/20 04:29:55;;;;;;;9.90;6.77;;;;;;;-13.82;100.00;101020.78;5039618;28;20072;-68
2024/01/20 04:32:21;;;;;;;7.10;6.40;;;;;;;-13.80;100.00;101030.16;5036631;28;20045;-69
2024/01/20 04:34:46;;;;;;;6.90;6.13;;;;;;;-14.02;100.00;100997.78;5043323;28;20056;-68
2024/01/20 04:37:12;;;;;;;5.80;5.20;;;;;;;-13.92;100.00;101019.09;5046054;28;20124;-68
2024/01/20 04:39:37;;;;;;;7.53;5.33;;;;;;;-14.00;100.00;101008.00;5042882;28;20033;-68
2024/01/20 04:42:03;;;;;;;9.53;5.17;;;;;;;-13.81;100.00;101048.09;5040940;28;20497;-66
2024/01/20 04:44:29;;;;;;;11.07;6.53;;;;;;;-14.47;100.00;100938.19;5038716;28;20455;-66
2024/01/20 04:46:54;;;;;;;9.90;6.00;;;;;;;-13.90;100.00;101038.69;5041190;28;20048;-68
2024/01/20 04:49:20;;;;;;;8.47;6.27;;;;;;;-13.77;100.00;101060.03;5036714;28;20614;-68
2024/01/20 04:51:46;;;;;;;7.43;6.10;;;;;;;-13.96;100.00;101022.50;5038889;28;20044;-67
2024/01/20 04:54:11;;;;;;;12.90;6.43;;;;;;;-13.66;100.00;101070.22;5041354;28;20484;-66
2024/01/20 04:56:36;;;;;;;7.67;6.40;;;;;;;-13.66;100.00;101057.44;5035978;28;20120;-66
2024/01/20 04:59:02;;;;;;;8.80;6.60;;;;;;;-13.64;100.00;101061.69;5041145;28;20037;-65
2024/01/20 05:01:28;;;;;;;10.17;6.37;;;;;;;-13.59;100.00;101067.66;5041892;28;20115;-65
2024/01/20 05:03:53;;;;;;;8.60;5.67;;;;;;;-13.51;100.00;101078.75;5043229;28;20053;-66
2024/01/20 05:06:19;;;;;;;8.73;6.47;;;;;;;-13.51;100.00;101078.75;5038257;28;20044;-68
2024/01/20 05:08:44;;;;;;;8.80;6.17;;;;;;;-13.80;100.00;101044.69;5044085;28;20091;-67
2024/01/20 05:11:10;;;;;;;10.10;6.10;;;;;;;-13.58;100.00;101092.44;5035709;28;20033;-68
2024/01/20 05:13:35;;;;;;;13.33;6.70;;;;;;;-13.72;100.00;101086.47;5038754;28;20041;-68
2024/01/20 05:16:01;;;;;;;10.27;7.47;;;;;;;-13.70;100.00;101102.69;5039692;28;20045;-67
2024/01/20 05:18:27;;;;;;;12.43;7.60;;;;;;;-14.02;100.00;101050.69;5043510;28;20057;-67
2024/01/20 05:20:53;;;;;;;15.18;8.57;;;;;;;-13.84;100.00;101079.69;5036839;28;20132;-67
2024/01/20 05:23:18;;;;;;;11.00;6.73;;;;;;;-13.84;100.00;101084.78;5040315;28;20464;-67
2024/01/20 05:25:44;;;;;;;9.10;6.33;;;;;;;-13.66;100.00;101118.88;5033109;28;20045;-68
2024/01/20 05:28:10;;;;;;;13.83;6.90;;;;;;;-13.78;100.00;101102.69;5033445;28;20292;-66
2024/01/20 05:30:35;;;;;;;12.10;7.97;;;;;;;-13.62;100.00;101126.56;5038933;28;20041;-69
2024/01/20 05:33:01;;;;;;;13.13;7.20;;;;;;;-13.75;100.00;101106.97;5040773;28;20118;-68
2024/01/20 05:35:26;;;;;;;10.17;7.37;;;;;;;-13.72;100.00;101132.56;5040954;28;20037;-66
2024/01/20 05:37:52;;;;;;;13.80;7.63;;;;;;;-13.72;100.00;101145.38;5035763;28;20041;-67
2024/01/20 05:40:17;;;;;;;9.23;7.63;;;;;;;-13.78;100.00;101140.25;5038519;28;20045;-67
2024/01/20 05:42:44;;;;;;;18.60;7.90;;;;;;;-13.85;100.00;101151.38;5043036;28;20092;-66
2024/01/20 05:45:10;;;;;;;10.97;7.63;;;;;;;-13.87;100.00;101155.63;5034818;28;20780;-66
2024/01/20 05:47:36;;;;;;;14.88;9.18;;;;;;;-13.91;100.00;101153.91;5039372;28;20128;-65
2024/01/20 05:50:03;;;;;;;10.27;8.13;;;;;;;-14.07;100.00;101141.97;5038012;28;20085;-66
2024/01/20 05:52:29;;;;;;;19.27;8.23;;;;;;;-14.15;100.00;101132.59;5034772;28;20038;-67
2024/01/20 05:54:55;;;;;;;8.73;6.63;;;;;;;-13.91;100.00;101177.78;5037300;28;20049;-68
2024/01/20 05:57:20;;;;;;;13.10;7.77;;;;;;;-14.04;100.00;101137.69;5037875;28;20041;-67
2024/01/20 05:59:46;;;;;;;13.33;7.23;;;;;;;-13.94;100.00;101156.47;5038900;28;20040;-67
2024/01/20 06:02:11;;;;;;;14.03;7.60;;;;;;;-14.20;100.00;101131.72;5032890;28;20056;-68
2024/01/20 06:04:37;;;;;;;15.47;7.43;;;;;;;-13.93;100.00;101189.75;5038087;28;20398;-65
2024/01/20 06:07:03;;;;;;;10.07;7.67;;;;;;;-13.95;100.00;101193.16;5021283;28;20038;-65
2024/01/20 06:09:28;;;;;;;12.27;7.13;;;;;;;-14.10;100.00;101179.50;5036484;28;20045;-68
2024/01/20 06:11:54;;;;;;;15.93;7.63;;;;;;;-14.29;100.00;101164.97;5039765;28;20045;-69
2024/01/20 06:14:19;;;;;;;8.80;7.03;;;;;;;-14.21;100.00;101186.28;5031464;28;20049;-68
2024/01/20 06:16:45;;;;;;;11.87;7.37;;;;;;;-14.15;100.00;101177.81;5034308;28;20052;-69
2024/01/20 06:19:10;;;;;;;11.90;6.27;;;;;;;-14.15;100.00;101181.22;5044766;28;20068;-67
2024/01/20 06:21:36;;;;;;;9.03;5.77;;;;;;;-14.03;100.00;101216.19;5044805;28;20507;-64
2024/01/20 06:24:02;;;;;;;12.27;6.93;;;;;;;-13.94;100.00;101226.44;5048151;28;20045;-68
2024/01/20 06:26:28;;;;;;;10.38;6.72;;;;;;;-14.01;100.00;101203.41;5047642;28;20357;-68
2024/01/20 06:28:54;;;;;;;9.00;5.97;;;;;;;-13.87;100.00;101215.38;5039547;28;20094;-68
2024/01/20 06:31:23;;;;;;;11.40;8.57;;;;;;;-13.74;100.00;101239.25;5048245;28;20235;-65
2024/01/20 06:33:49;;;;;;;8.20;6.80;;;;;;;-13.70;100.00;101235.84;5047316;28;20224;-68
2024/01/20 06:36:14;;;;;;;7.70;6.90;;;;;;;-13.88;100.00;101215.34;5047150;28;20131;-68
2024/01/20 06:38:40;;;;;;;10.70;6.23;;;;;;;-13.76;100.00;101240.97;5041376;28;20056;-65
2024/01/20 06:41:06;;;;;;;11.60;7.63;;;;;;;-13.95;100.00;101218.75;5039385;28;20048;-69
2024/01/20 06:43:31;;;;;;;12.60;6.10;;;;;;;-13.99;100.00;101222.16;5039253;28;20098;-68
2024/01/20 06:45:57;;;;;;;12.70;8.23;;;;;;;-13.97;100.00;101244.34;5040236;28;20088;-68
2024/01/20 06:48:24;;;;;;;9.95;7.28;;;;;;;-14.17;100.00;101228.09;5045484;28;20461;-69
2024/01/20 06:50:49;;;;;;;15.55;8.38;;;;;;;-13.96;100.00;101255.44;5036620;28;20128;-66
2024/01/20 06:53:15;;;;;;;18.77;12.17;;;;;;;-14.11;100.00;101220.44;5037746;28;20037;-67
2024/01/20 06:55:40;;;;;;;15.00;9.43;;;;;;;-14.04;100.00;101234.09;5042733;28;20400;-67
2024/01/20 06:58:06;;;;;;;17.00;7.83;;;;;;;-13.92;100.00;101245.22;5038673;28;20049;-67
2024/01/20 07:00:31;;;;;;;12.80;7.10;;;;;;;-13.81;100.00;101264.03;5037099;28;20935;-68
2024/01/20 07:02:58;;;;;;;9.07;6.53;;;;;;;-13.91;100.00;101251.19;5039020;28;20116;-71
2024/01/20 07:05:23;;;;;;;11.80;7.05;;;;;;;-13.97;100.00;101236.66;5037141;28;20072;-71
2024/01/20 07:07:49;;;;;;;12.40;8.63;;;;;;;-13.87;100.00;101242.69;5035649;28;20128;-70
2024/01/20 07:10:15;;;;;;;8.43;7.27;;;;;;;-13.95;100.00;101244.34;5040711;28;20069;-72
2024/01/20 07:12:40;;;;;;;16.60;8.77;;;;;;;-13.73;100.00;101281.94;5038928;28;20092;-71
2024/01/20 07:15:06;;;;;;;8.77;6.63;;;;;;;-14.24;100.00;101199.09;5036246;28;20527;-68
2024/01/20 07:17:33;;;;;;;16.30;9.02;;;;;;;-13.92;100.00;101249.47;5038347;28;20541;-72
2024/01/20 07:20:03;;;;;;;11.80;8.52;;;;;;;-13.75;100.00;101272.56;5034496;28;20179;-71
2024/01/20 07:22:31;;;;;;;13.80;7.65;;;;;;;-14.08;100.00;101212.78;5039849;28;20404;-72
2024/01/20 07:24:57;;;;;;;12.68;7.93;;;;;;;-13.95;100.00;101241.78;5038463;28;20132;-73
2024/01/20 07:27:22;;;;;;;11.00;8.17;;;;;;;-13.71;100.00;101289.63;5041195;28;20048;-72
2024/01/20 07:29:48;;;;;;;15.63;8.67;;;;;;;-13.62;100.00;101284.50;5036518;28;20103;-69
2024/01/20 07:32:14;;;;;;;16.53;7.97;;;;;;;-13.77;100.00;101249.50;5040290;28;20503;-66
2024/01/20 07:34:39;;;;;;;14.03;7.63;;;;;;;-13.68;100.00;101264.03;5045170;28;20090;-71
2024/01/20 07:37:05;;;;;;;9.93;7.77;;;;;;;-13.46;100.00;101299.03;5047424;28;20067;-67
2024/01/20 07:39:30;;;;;;;12.90;7.90;;;;;;;-13.37;100.00;101322.09;5047229;28;20451;-69
2024/01/20 07:41:56;;;;;;;11.67;8.17;;;;;;;-13.67;100.00;101274.25;5038523;28;20128;-72
2024/01/20 07:44:21;;;;;;;15.93;8.70;;;;;;;-13.24;100.00;101326.41;5039181;28;20614;-70
2024/01/20 07:46:47;;;;;;;11.70;9.27;;;;;;;-13.32;100.00;101305.00;5039187;28;20477;-75
2024/01/20 07:49:12;;;;;;;11.93;7.90;;;;;;;-12.96;100.00;101345.16;5032783;28;20029;-74
2024/01/20 07:51:38;;;;;;;15.83;7.17;;;;;;;-12.85;100.00;101334.88;5043465;28;20062;-70
2024/01/20 07:54:04;;;;;;;13.27;7.67;;;;;;;-12.67;100.00;101340.00;5043307;28;20056;-67
2024/01/20 07:56:30;;;;;;;14.13;8.67;;;;;;;-12.58;100.00;101341.66;5039349;28;20028;-68
2024/01/20 07:58:56;;;;;;;14.75;9.55;;;;;;;-13.64;99.10;101178.66;5036695;28;20050;-68
2024/01/20 08:01:22;;;;;;;18.40;10.20;;;;;;;-12.69;100.00;101343.41;5049094;28;20040;-72
2024/01/20 08:03:47;;;;;;;20.53;12.87;;;;;;;-12.73;100.00;101351.94;5042582;28;20442;-68
2024/01/20 08:06:13;;;;;;;15.40;10.63;;;;;;;-12.94;100.00;101317.78;5042392;28;20041;-68
2024/01/20 08:08:38;;;;;;;14.30;10.03;;;;;;;-12.69;100.00;101359.66;5039596;28;20041;-68
2024/01/20 08:11:04;;;;;;;12.20;8.07;;;;;;;-12.71;100.00;101347.69;5038454;28;20041;-67
2024/01/20 08:13:29;;;;;;;17.23;7.87;;;;;;;-12.66;100.00;101356.22;5043396;28;20045;-70
2024/01/20 08:15:55;;;;;;;11.73;10.33;;;;;;;-12.64;100.00;101354.50;5044818;28;20056;-69
2024/01/20 08:18:21;;;;;;;16.13;8.73;;;;;;;-13.08;100.00;101283.63;5043388;28;20064;-66
2024/01/20 08:20:46;;;;;;;19.30;9.60;;;;;;;-12.68;100.00;101337.44;5046991;28;20459;-67
2024/01/20 08:23:12;;;;;;;9.40;8.37;;;;;;;-12.56;100.00;101345.94;5045891;28;20049;-71
2024/01/20 08:25:37;;;;;;;14.23;9.63;;;;;;;-12.53;100.00;101339.94;5044303;28;20048;-69
2024/01/20 08:28:03;;;;;;;11.40;8.97;;;;;;;-12.42;100.00;101357.91;5039419;28;20087;-68
2024/01/20 08:30:28;;;;;;;13.70;10.50;;;;;;;-12.36;100.00;101363.88;5050601;28;20047;-70
2024/01/20 08:32:54;;;;;;;17.23;9.40;;;;;;;-12.38;100.00;101362.16;5039438;28;20417;-70
2024/01/20 08:35:20;;;;;;;20.27;10.37;;;;;;;-12.26;100.00;101373.22;5043437;28;20127;-70
2024/01/20 08:37:45;;;;;;;11.70;8.37;;;;;;;-12.42;100.00;101342.50;5044205;28;20055;-69
2024/01/20 08:40:11;;;;;;;15.27;7.97;;;;;;;-12.18;100.00;101378.34;5038021;28;20048;-72
2024/01/20 08:42:36;;;;;;;13.97;9.33;;;;;;;-12.28;100.00;101354.41;5039086;28;20116;-72
2024/01/20 08:45:03;;;;;;;14.13;8.33;;;;;;;-12.31;100.00;101346.72;5042950;28;20043;-69
2024/01/20 08:47:29;;;;;;;14.60;9.18;;;;;;;-12.08;100.00;101385.16;5045592;28;20044;-70
2024/01/20 08:49:55;;;;;;;20.70;10.20;;;;;;;-12.06;100.00;101388.59;5045932;28;20033;-68
2024/01/20 08:52:20;;;;;;;14.87;8.37;;;;;;;-12.15;100.00;101372.34;5042323;28;20032;-68
2024/01/20 08:54:46;;;;;;;16.73;8.83;;;;;;;-12.36;100.00;101338.19;5040009;28;20057;-67
2024/01/20 08:57:12;;;;;;;15.23;8.38;;;;;;;-12.20;99.98;101380.91;5039969;28;20409;-71
2024/01/20 08:59:38;;;;;;;12.65;7.88;;;;;;;-12.32;100.00;101373.25;5042450;28;20048;-69
2024/01/20 09:02:05;;;;;;;12.20;9.03;;;;;;;-12.55;100.00;101321.13;5052887;28;20037;-69
2024/01/20 09:04:31;;;;;;;11.68;7.78;;;;;;;-12.22;100.00;101382.63;5049759;28;20326;-72
2024/01/20 09:06:56;;;;;;;14.77;7.93;;;;;;;-12.47;100.00;101339.06;5044132;28;20032;-68
2024/01/20 09:09:22;;;;;;;13.13;8.50;;;;;;;-12.33;100.00;101373.25;5045772;28;20468;-69
2024/01/20 09:11:47;;;;;;;10.53;7.63;;;;;;;-12.31;100.00;101377.53;5044854;28;20136;-69
2024/01/20 09:14:14;;;;;;;10.83;7.57;;;;;;;-12.36;100.00;101363.88;5041799;28;20041;-69
2024/01/20 09:16:40;;;;;;;8.75;7.60;;;;;;;-11.99;100.00;101417.66;5043000;28;20064;-67
2024/01/20 09:19:10;;;;;;;12.35;7.80;;;;;;;-12.07;100.00;101391.16;5039334;28;20080;-69
2024/01/20 09:21:35;;;;;;;9.60;7.57;;;;;;;-11.91;100.00;101423.63;5043277;28;20115;-70
2024/01/20 09:24:01;;;;;;;11.20;7.13;;;;;;;-11.89;100.00;101421.91;5039164;28;20556;-67
2024/01/20 09:26:26;;;;;;;8.53;7.47;;;;;;;-12.00;100.00;101410.81;5043307;28;20041;-69
2024/01/20 09:28:52;;;;;;;14.87;7.57;;;;;;;-12.58;100.00;101321.16;5040741;28;20044;-69
2024/01/20 09:31:19;;;;;;;8.45;6.60;;;;;;;-11.99;100.00;101422.78;5034502;28;20060;-68
2024/01/20 09:33:45;;;;;;;12.10;7.23;;;;;;;-11.85;100.00;101439.03;5044432;28;20037;-68
2024/01/20 09:36:12;;;;;;;10.07;7.00;;;;;;;-12.07;100.00;101417.69;5043786;28;20104;-67
2024/01/20 09:38:37;;;;;;;12.23;10.10;;;;;;;-11.98;100.00;101422.78;5057063;28;20508;-66
2024/01/20 09:41:09;;;;;;;12.20;6.73;;;;;;;-11.88;100.00;101431.31;5051678;28;20032;-68
2024/01/20 09:43:38;;;;;;;13.30;7.18;;;;;;;-11.90;100.00;101420.19;5049288;28;20088;-66
2024/01/20 09:46:04;;;;;;;7.70;6.90;;;;;;;-11.89;100.00;101414.19;5044939;28;20131;-68
2024/01/20 09:48:29;;;;;;;20.55;9.02;;;;;;;-11.72;100.00;101437.22;5044833;28;20075;-68
2024/01/20 09:50:55;;;;;;;17.97;9.57;;;;;;;-11.64;100.00;101444.03;5049119;28;20033;-66
2024/01/20 09:53:21;;;;;;;14.70;7.67;;;;;;;-11.95;100.00;101385.97;5057174;28;20040;-68
2024/01/20 09:55:46;;;;;;;8.57;7.20;;;;;;;-11.69;100.00;101427.78;5044128;28;20484;-70
2024/01/20 09:58:14;;;;;;;12.53;6.70;;;;;;;-11.57;100.00;101450.84;5043593;28;20049;-69
2024/01/20 10:00:41;;;;;;;13.27;8.25;;;;;;;-12.12;100.00;101354.38;5046050;28;20030;-70
2024/01/20 10:03:11;;;;;;;11.23;8.75;;;;;;;-11.51;99.98;101456.84;5034984;28;20094;-67
2024/01/20 10:05:37;;;;;;;14.90;8.00;;;;;;;-11.50;100.00;101455.97;5043811;28;20055;-67
2024/01/20 10:08:05;;;;;;;12.38;7.43;;;;;;;-11.59;99.25;101450.00;5043685;28;20039;-68
2024/01/20 10:10:32;;;;;;;14.45;7.50;;;;;;;-11.74;99.99;101426.09;5042801;28;20136;-68
2024/01/20 10:12:58;;;;;;;14.88;8.63;;;;;;;-12.09;100.00;101351.81;5037320;28;20133;-69
2024/01/20 10:15:30;;;;;;;24.27;13.68;;;;;;;-11.73;100.00;101414.97;5047598;28;20075;-71
2024/01/20 10:18:21;;;;;;;11.98;8.02;;;;;;;-11.62;99.74;101444.03;5042031;28;20445;-69
2024/01/20 10:20:46;;;;;;;12.50;8.20;;;;;;;-11.37;100.00;101480.75;5041668;28;20041;-70
2024/01/20 10:23:12;;;;;;;12.40;8.90;;;;;;;-11.50;100.00;101448.28;5047235;28;20037;-67
2024/01/20 10:25:37;;;;;;;14.40;8.23;;;;;;;-11.46;99.80;101449.97;5042818;28;20094;-68
2024/01/20 10:28:03;;;;;;;13.20;9.17;;;;;;;-11.50;100.00;101443.13;5041187;28;20037;-67
2024/01/20 10:30:30;;;;;;;13.48;7.93;;;;;;;-11.37;100.00;101458.47;5046261;28;20179;-68
2024/01/20 10:32:55;;;;;;;13.45;7.82;;;;;;;-11.30;100.00;101464.44;5039798;28;20041;-68
2024/01/20 10:35:21;;;;;;;11.87;7.83;;;;;;;-11.33;100.00;101454.16;5036032;28;20041;-68
2024/01/20 10:38:18;;;;;;;13.95;6.85;;;;;;;-11.25;100.00;101465.28;5026413;28;20048;-67
2024/01/20 10:40:49;;;;;;;10.05;7.13;;;;;;;-11.17;100.00;101476.38;5030850;28;20041;-67
2024/01/20 10:43:27;;;;;;;11.23;7.25;;;;;;;-11.12;100.00;101496.91;5039730;28;20033;-68
2024/01/20 10:45:53;;;;;;;;;;;;;;;-11.04;100.00;101490.84;5020514;28;20136;-67
2024/01/20 10:48:24;;;;;;;10.07;7.43;;;;;;;-11.07;100.00;101497.75;5032912;28;20559;-67
2024/01/20 10:51:03;;;;;;;17.88;7.93;;;;;;;-11.10;100.00;101492.63;5033332;28;20062;-70
2024/01/20 10:53:29;;;;;;;10.20;7.15;;;;;;;-11.20;100.00;101481.53;5047044;28;20033;-68
2024/01/20 10:55:55;;;;;;;9.98;7.43;;;;;;;-11.35;100.00;101453.31;5037926;28;20045;-69
2024/01/20 10:58:30;;;;;;;9.10;7.63;;;;;;;-11.12;100.00;101490.06;5045102;28;20040;-68
2024/01/20 11:00:56;;;;;;;9.82;7.25;;;;;;;-11.52;100.00;101438.00;5047169;28;20432;-69
2024/01/20 11:03:22;;;;;;;10.10;6.80;;;;;;;-11.54;100.00;101433.72;5033189;28;20131;-68